sensor_id;sensor_type;location;lat;lon;timestamp;P1;durP1;ratioP1;P2;durP2;ratioP2
52266;SDS011;38223;50.940;4.034;2022-07-30T00:01:30;9.43;;;5.35;;
52266;SDS011;38223;50.940;4.034;2022-07-30T00:04:04;7.25;;;5.37;;
52266;SDS011;38223;50.940;4.034;2022-07-30T00:06:37;8.40;;;5.75;;
52266;SDS011;38223;50.940;4.034;2022-07-30T00:09:06;14.35;;;5.95;;
52266;SDS011;38223;50.940;4.034;2022-07-30T00:11:38;14.87;;;5.67;;
52266;SDS011;38223;50.940;4.034;2022-07-30T00:14:08;9.58;;;5.40;;
52266;SDS011;38223;50.940;4.034;2022-07-30T00:17:02;10.28;;;5.30;;
52266;SDS011;38223;50.940;4.034;2022-07-30T00:19:34;10.95;;;5.62;;
52266;SDS011;38223;50.940;4.034;2022-07-30T00:22:07;10.35;;;5.10;;
52266;SDS011;38223;50.940;4.034;2022-07-30T00:24:40;10.58;;;5.75;;
52266;SDS011;38223;50.940;4.034;2022-07-30T00:27:09;11.65;;;6.28;;
52266;SDS011;38223;50.940;4.034;2022-07-30T00:29:45;12.80;;;5.95;;
52266;SDS011;38223;50.940;4.034;2022-07-30T00:32:18;11.88;;;5.50;;
52266;SDS011;38223;50.940;4.034;2022-07-30T00:34:56;8.18;;;5.37;;
52266;SDS011;38223;50.940;4.034;2022-07-30T00:37:32;11.05;;;5.25;;
52266;SDS011;38223;50.940;4.034;2022-07-30T00:40:06;8.75;;;5.33;;
52266;SDS011;38223;50.940;4.034;2022-07-30T00:42:43;11.30;;;5.83;;
52266;SDS011;38223;50.940;4.034;2022-07-30T00:45:15;10.55;;;6.33;;
52266;SDS011;38223;50.940;4.034;2022-07-30T00:47:51;15.45;;;6.15;;
52266;SDS011;38223;50.940;4.034;2022-07-30T00:50:23;8.78;;;6.33;;
52266;SDS011;38223;50.940;4.034;2022-07-30T00:52:58;8.88;;;5.83;;
52266;SDS011;38223;50.940;4.034;2022-07-30T00:55:28;8.00;;;6.55;;
52266;SDS011;38223;50.940;4.034;2022-07-30T00:58:00;10.70;;;6.33;;
52266;SDS011;38223;50.940;4.034;2022-07-30T01:00:31;9.05;;;6.70;;
52266;SDS011;38223;50.940;4.034;2022-07-30T01:03:05;11.28;;;6.80;;
52266;SDS011;38223;50.940;4.034;2022-07-30T01:05:36;9.70;;;6.85;;
52266;SDS011;38223;50.940;4.034;2022-07-30T01:08:12;11.50;;;6.42;;
52266;SDS011;38223;50.940;4.034;2022-07-30T01:10:42;11.10;;;7.05;;
52266;SDS011;38223;50.940;4.034;2022-07-30T01:13:14;10.53;;;6.40;;
52266;SDS011;38223;50.940;4.034;2022-07-30T01:15:47;13.45;;;6.78;;
52266;SDS011;38223;50.940;4.034;2022-07-30T01:18:16;9.50;;;7.70;;
52266;SDS011;38223;50.940;4.034;2022-07-30T01:20:55;14.10;;;8.03;;
52266;SDS011;38223;50.940;4.034;2022-07-30T01:23:30;8.70;;;7.80;;
52266;SDS011;38223;50.940;4.034;2022-07-30T01:26:04;11.25;;;7.90;;
52266;SDS011;38223;50.940;4.034;2022-07-30T01:28:32;9.93;;;8.03;;
52266;SDS011;38223;50.940;4.034;2022-07-30T01:31:11;19.05;;;8.88;;
52266;SDS011;38223;50.940;4.034;2022-07-30T01:33:44;11.45;;;8.45;;
52266;SDS011;38223;50.940;4.034;2022-07-30T01:36:19;12.58;;;8.10;;
52266;SDS011;38223;50.940;4.034;2022-07-30T01:38:53;9.18;;;8.38;;
52266;SDS011;38223;50.940;4.034;2022-07-30T01:41:26;12.03;;;9.78;;
52266;SDS011;38223;50.940;4.034;2022-07-30T01:44:01;12.28;;;9.45;;
52266;SDS011;38223;50.940;4.034;2022-07-30T01:46:34;14.35;;;10.28;;
52266;SDS011;38223;50.940;4.034;2022-07-30T01:49:07;17.35;;;10.43;;
52266;SDS011;38223;50.940;4.034;2022-07-30T01:51:41;15.55;;;11.38;;
52266;SDS011;38223;50.940;4.034;2022-07-30T01:54:18;12.53;;;11.18;;
52266;SDS011;38223;50.940;4.034;2022-07-30T01:56:50;13.38;;;11.20;;
52266;SDS011;38223;50.940;4.034;2022-07-30T01:59:23;18.37;;;11.35;;
52266;SDS011;38223;50.940;4.034;2022-07-30T02:01:54;13.83;;;12.13;;
52266;SDS011;38223;50.940;4.034;2022-07-30T02:04:29;14.93;;;11.35;;
52266;SDS011;38223;50.940;4.034;2022-07-30T02:07:03;21.82;;;11.45;;
52266;SDS011;38223;50.940;4.034;2022-07-30T02:09:53;13.72;;;12.07;;
52266;SDS011;38223;50.940;4.034;2022-07-30T02:12:43;18.87;;;12.85;;
52266;SDS011;38223;50.940;4.034;2022-07-30T02:15:27;19.95;;;13.75;;
52266;SDS011;38223;50.940;4.034;2022-07-30T02:18:03;20.68;;;13.88;;
52266;SDS011;38223;50.940;4.034;2022-07-30T02:20:35;22.75;;;14.45;;
52266;SDS011;38223;50.940;4.034;2022-07-30T02:23:06;14.38;;;12.95;;
52266;SDS011;38223;50.940;4.034;2022-07-30T02:25:41;15.50;;;13.45;;
52266;SDS011;38223;50.940;4.034;2022-07-30T02:28:12;17.37;;;13.65;;
52266;SDS011;38223;50.940;4.034;2022-07-30T02:30:54;17.27;;;12.78;;
52266;SDS011;38223;50.940;4.034;2022-07-30T02:33:21;20.48;;;14.45;;
52266;SDS011;38223;50.940;4.034;2022-07-30T02:35:57;17.05;;;13.08;;
52266;SDS011;38223;50.940;4.034;2022-07-30T02:38:32;17.23;;;13.62;;
52266;SDS011;38223;50.940;4.034;2022-07-30T02:41:06;14.78;;;13.18;;
52266;SDS011;38223;50.940;4.034;2022-07-30T02:43:39;19.23;;;13.75;;
52266;SDS011;38223;50.940;4.034;2022-07-30T02:46:11;16.45;;;12.88;;
52266;SDS011;38223;50.940;4.034;2022-07-30T02:49:04;21.35;;;13.53;;
52266;SDS011;38223;50.940;4.034;2022-07-30T02:51:39;15.03;;;13.50;;
52266;SDS011;38223;50.940;4.034;2022-07-30T02:54:13;14.33;;;12.93;;
52266;SDS011;38223;50.940;4.034;2022-07-30T02:56:48;15.68;;;12.53;;
52266;SDS011;38223;50.940;4.034;2022-07-30T02:59:21;18.10;;;13.68;;
52266;SDS011;38223;50.940;4.034;2022-07-30T03:02:05;23.73;;;13.03;;
52266;SDS011;38223;50.940;4.034;2022-07-30T03:04:40;16.57;;;12.88;;
52266;SDS011;38223;50.940;4.034;2022-07-30T03:07:13;15.15;;;12.70;;
52266;SDS011;38223;50.940;4.034;2022-07-30T03:09:50;18.95;;;13.00;;
52266;SDS011;38223;50.940;4.034;2022-07-30T03:12:24;16.52;;;12.35;;
52266;SDS011;38223;50.940;4.034;2022-07-30T03:14:58;15.20;;;12.55;;
52266;SDS011;38223;50.940;4.034;2022-07-30T03:17:36;14.45;;;12.70;;
52266;SDS011;38223;50.940;4.034;2022-07-30T03:20:07;13.72;;;12.07;;
52266;SDS011;38223;50.940;4.034;2022-07-30T03:22:43;18.17;;;13.62;;
52266;SDS011;38223;50.940;4.034;2022-07-30T03:25:17;16.23;;;12.37;;
52266;SDS011;38223;50.940;4.034;2022-07-30T03:27:47;17.48;;;11.88;;
52266;SDS011;38223;50.940;4.034;2022-07-30T03:30:26;12.98;;;11.68;;
52266;SDS011;38223;50.940;4.034;2022-07-30T03:32:57;16.27;;;12.30;;
52266;SDS011;38223;50.940;4.034;2022-07-30T03:35:32;15.65;;;12.33;;
52266;SDS011;38223;50.940;4.034;2022-07-30T03:38:03;14.23;;;11.28;;
52266;SDS011;38223;50.940;4.034;2022-07-30T03:40:38;13.20;;;11.78;;
52266;SDS011;38223;50.940;4.034;2022-07-30T03:43:10;12.90;;;11.08;;
52266;SDS011;38223;50.940;4.034;2022-07-30T03:45:43;14.47;;;11.85;;
52266;SDS011;38223;50.940;4.034;2022-07-30T03:48:34;16.37;;;12.10;;
52266;SDS011;38223;50.940;4.034;2022-07-30T03:51:07;15.43;;;11.60;;
52266;SDS011;38223;50.940;4.034;2022-07-30T03:53:42;14.28;;;11.63;;
52266;SDS011;38223;50.940;4.034;2022-07-30T03:56:17;12.85;;;11.57;;
52266;SDS011;38223;50.940;4.034;2022-07-30T03:58:50;13.72;;;11.85;;
52266;SDS011;38223;50.940;4.034;2022-07-30T04:01:25;14.83;;;12.23;;
52266;SDS011;38223;50.940;4.034;2022-07-30T04:04:06;13.45;;;12.03;;
52266;SDS011;38223;50.940;4.034;2022-07-30T04:06:43;17.20;;;12.43;;
52266;SDS011;38223;50.940;4.034;2022-07-30T04:09:14;16.10;;;13.10;;
52266;SDS011;38223;50.940;4.034;2022-07-30T04:11:47;16.90;;;12.35;;
52266;SDS011;38223;50.940;4.034;2022-07-30T04:14:21;14.63;;;12.80;;
52266;SDS011;38223;50.940;4.034;2022-07-30T04:19:41;13.68;;;12.13;;
52266;SDS011;38223;50.940;4.034;2022-07-30T04:22:08;15.45;;;12.28;;
52266;SDS011;38223;50.940;4.034;2022-07-30T04:24:47;14.13;;;12.58;;
52266;SDS011;38223;50.940;4.034;2022-07-30T04:27:16;16.27;;;12.13;;
52266;SDS011;38223;50.940;4.034;2022-07-30T04:29:56;15.32;;;12.47;;
52266;SDS011;38223;50.940;4.034;2022-07-30T04:32:25;14.95;;;13.03;;
52266;SDS011;38223;50.940;4.034;2022-07-30T04:35:01;13.50;;;12.13;;
52266;SDS011;38223;50.940;4.034;2022-07-30T04:37:31;14.63;;;12.40;;
52266;SDS011;38223;50.940;4.034;2022-07-30T04:40:07;13.85;;;12.45;;
52266;SDS011;38223;50.940;4.034;2022-07-30T04:42:41;15.03;;;13.43;;
52266;SDS011;38223;50.940;4.034;2022-07-30T04:45:14;14.20;;;12.82;;
52266;SDS011;38223;50.940;4.034;2022-07-30T04:47:45;14.55;;;12.50;;
52266;SDS011;38223;50.940;4.034;2022-07-30T04:50:20;14.23;;;12.60;;
52266;SDS011;38223;50.940;4.034;2022-07-30T04:52:52;14.50;;;12.90;;
52266;SDS011;38223;50.940;4.034;2022-07-30T04:55:27;15.30;;;12.98;;
52266;SDS011;38223;50.940;4.034;2022-07-30T04:58:01;13.80;;;12.07;;
52266;SDS011;38223;50.940;4.034;2022-07-30T05:00:33;13.72;;;12.40;;
52266;SDS011;38223;50.940;4.034;2022-07-30T05:03:10;16.75;;;11.88;;
52266;SDS011;38223;50.940;4.034;2022-07-30T05:05:44;15.93;;;12.03;;
52266;SDS011;38223;50.940;4.034;2022-07-30T05:08:18;17.15;;;12.58;;
52266;SDS011;38223;50.940;4.034;2022-07-30T05:10:53;16.85;;;11.90;;
52266;SDS011;38223;50.940;4.034;2022-07-30T05:13:26;15.78;;;11.88;;
52266;SDS011;38223;50.940;4.034;2022-07-30T05:15:57;18.25;;;13.05;;
52266;SDS011;38223;50.940;4.034;2022-07-30T05:18:34;14.45;;;12.45;;
52266;SDS011;38223;50.940;4.034;2022-07-30T05:21:01;17.87;;;12.45;;
52266;SDS011;38223;50.940;4.034;2022-07-30T05:23:34;14.00;;;12.33;;
52266;SDS011;38223;50.940;4.034;2022-07-30T05:26:11;14.53;;;12.50;;
52266;SDS011;38223;50.940;4.034;2022-07-30T05:28:39;17.23;;;13.15;;
52266;SDS011;38223;50.940;4.034;2022-07-30T05:31:12;14.43;;;13.03;;
52266;SDS011;38223;50.940;4.034;2022-07-30T05:33:42;14.63;;;12.43;;
52266;SDS011;38223;50.940;4.034;2022-07-30T05:36:17;20.70;;;12.45;;
52266;SDS011;38223;50.940;4.034;2022-07-30T05:38:49;20.08;;;12.98;;
52266;SDS011;38223;50.940;4.034;2022-07-30T05:41:24;19.98;;;12.73;;
52266;SDS011;38223;50.940;4.034;2022-07-30T05:43:56;16.40;;;13.25;;
52266;SDS011;38223;50.940;4.034;2022-07-30T05:46:30;19.12;;;13.48;;
52266;SDS011;38223;50.940;4.034;2022-07-30T05:49:00;13.70;;;12.35;;
52266;SDS011;38223;50.940;4.034;2022-07-30T05:51:31;17.20;;;12.55;;
52266;SDS011;38223;50.940;4.034;2022-07-30T05:54:06;14.00;;;12.60;;
52266;SDS011;38223;50.940;4.034;2022-07-30T05:56:42;13.55;;;12.25;;
52266;SDS011;38223;50.940;4.034;2022-07-30T05:59:11;14.15;;;12.88;;
52266;SDS011;38223;50.940;4.034;2022-07-30T06:01:44;15.72;;;12.65;;
52266;SDS011;38223;50.940;4.034;2022-07-30T06:04:14;14.00;;;12.43;;
52266;SDS011;38223;50.940;4.034;2022-07-30T06:06:49;14.07;;;12.75;;
52266;SDS011;38223;50.940;4.034;2022-07-30T06:09:21;14.58;;;12.40;;
52266;SDS011;38223;50.940;4.034;2022-07-30T06:11:54;16.25;;;12.50;;
52266;SDS011;38223;50.940;4.034;2022-07-30T06:14:44;19.77;;;12.60;;
52266;SDS011;38223;50.940;4.034;2022-07-30T06:17:17;13.35;;;12.10;;
52266;SDS011;38223;50.940;4.034;2022-07-30T06:19:49;17.42;;;12.35;;
52266;SDS011;38223;50.940;4.034;2022-07-30T06:22:20;17.55;;;13.58;;
52266;SDS011;38223;50.940;4.034;2022-07-30T06:24:51;15.28;;;13.40;;
52266;SDS011;38223;50.940;4.034;2022-07-30T06:27:22;17.32;;;13.18;;
52266;SDS011;38223;50.940;4.034;2022-07-30T06:29:57;14.73;;;12.55;;
52266;SDS011;38223;50.940;4.034;2022-07-30T06:32:31;13.58;;;11.90;;
52266;SDS011;38223;50.940;4.034;2022-07-30T06:35:05;14.83;;;12.60;;
52266;SDS011;38223;50.940;4.034;2022-07-30T06:37:35;14.07;;;11.70;;
52266;SDS011;38223;50.940;4.034;2022-07-30T06:40:08;13.70;;;12.13;;
52266;SDS011;38223;50.940;4.034;2022-07-30T06:42:40;15.35;;;11.60;;
52266;SDS011;38223;50.940;4.034;2022-07-30T06:45:14;14.63;;;11.60;;
52266;SDS011;38223;50.940;4.034;2022-07-30T06:50:34;13.15;;;10.53;;
52266;SDS011;38223;50.940;4.034;2022-07-30T06:53:06;13.08;;;11.03;;
52266;SDS011;38223;50.940;4.034;2022-07-30T06:55:38;14.75;;;10.60;;
52266;SDS011;38223;50.940;4.034;2022-07-30T06:58:08;13.78;;;9.65;;
52266;SDS011;38223;50.940;4.034;2022-07-30T07:00:44;16.40;;;10.20;;
52266;SDS011;38223;50.940;4.034;2022-07-30T07:03:20;12.58;;;9.13;;
52266;SDS011;38223;50.940;4.034;2022-07-30T07:05:53;12.63;;;9.05;;
52266;SDS011;38223;50.940;4.034;2022-07-30T07:08:22;7.95;;;6.78;;
52266;SDS011;38223;50.940;4.034;2022-07-30T07:10:56;12.93;;;6.60;;
52266;SDS011;38223;50.940;4.034;2022-07-30T07:13:27;7.95;;;5.60;;
52266;SDS011;38223;50.940;4.034;2022-07-30T07:15:59;7.30;;;5.62;;
52266;SDS011;38223;50.940;4.034;2022-07-30T07:18:30;11.03;;;6.03;;
52266;SDS011;38223;50.940;4.034;2022-07-30T07:21:03;9.65;;;6.60;;
52266;SDS011;38223;50.940;4.034;2022-07-30T07:23:36;7.87;;;5.62;;
52266;SDS011;38223;50.940;4.034;2022-07-30T07:26:08;9.55;;;5.70;;
52266;SDS011;38223;50.940;4.034;2022-07-30T07:28:41;6.75;;;4.78;;
52266;SDS011;38223;50.940;4.034;2022-07-30T07:31:15;8.85;;;5.30;;
52266;SDS011;38223;50.940;4.034;2022-07-30T07:33:48;6.20;;;4.42;;
52266;SDS011;38223;50.940;4.034;2022-07-30T07:36:22;10.90;;;4.25;;
52266;SDS011;38223;50.940;4.034;2022-07-30T07:38:51;5.40;;;3.65;;
52266;SDS011;38223;50.940;4.034;2022-07-30T07:41:24;7.25;;;3.42;;
52266;SDS011;38223;50.940;4.034;2022-07-30T07:43:56;5.33;;;3.30;;
52266;SDS011;38223;50.940;4.034;2022-07-30T07:46:28;6.45;;;2.95;;
52266;SDS011;38223;50.940;4.034;2022-07-30T07:49:19;8.10;;;2.42;;
52266;SDS011;38223;50.940;4.034;2022-07-30T07:51:49;10.98;;;2.62;;
52266;SDS011;38223;50.940;4.034;2022-07-30T07:54:27;6.05;;;2.83;;
52266;SDS011;38223;50.940;4.034;2022-07-30T07:56:50;2.77;;;2.27;;
52266;SDS011;38223;50.940;4.034;2022-07-30T07:59:28;2.70;;;1.57;;
52266;SDS011;38223;50.940;4.034;2022-07-30T08:01:56;3.92;;;1.82;;
52266;SDS011;38223;50.940;4.034;2022-07-30T08:04:27;3.30;;;1.72;;
52266;SDS011;38223;50.940;4.034;2022-07-30T08:07:00;6.03;;;1.82;;
52266;SDS011;38223;50.940;4.034;2022-07-30T08:09:30;3.92;;;1.80;;
52266;SDS011;38223;50.940;4.034;2022-07-30T08:12:03;4.75;;;1.30;;
52266;SDS011;38223;50.940;4.034;2022-07-30T08:14:38;4.08;;;1.45;;
52266;SDS011;38223;50.940;4.034;2022-07-30T08:17:13;4.30;;;1.70;;
52266;SDS011;38223;50.940;4.034;2022-07-30T08:19:44;2.52;;;1.20;;
52266;SDS011;38223;50.940;4.034;2022-07-30T08:22:20;3.00;;;1.40;;
52266;SDS011;38223;50.940;4.034;2022-07-30T08:24:54;3.22;;;1.07;;
52266;SDS011;38223;50.940;4.034;2022-07-30T08:27:26;2.65;;;1.25;;
52266;SDS011;38223;50.940;4.034;2022-07-30T08:29:58;2.83;;;1.02;;
52266;SDS011;38223;50.940;4.034;2022-07-30T08:32:30;2.05;;;0.98;;
52266;SDS011;38223;50.940;4.034;2022-07-30T08:35:04;2.50;;;1.30;;
52266;SDS011;38223;50.940;4.034;2022-07-30T08:37:37;2.05;;;1.15;;
52266;SDS011;38223;50.940;4.034;2022-07-30T08:40:11;4.75;;;1.62;;
52266;SDS011;38223;50.940;4.034;2022-07-30T08:42:40;3.77;;;1.40;;
52266;SDS011;38223;50.940;4.034;2022-07-30T08:45:11;5.22;;;1.52;;
52266;SDS011;38223;50.940;4.034;2022-07-30T08:47:47;4.08;;;1.45;;
52266;SDS011;38223;50.940;4.034;2022-07-30T08:50:19;4.83;;;1.55;;
52266;SDS011;38223;50.940;4.034;2022-07-30T08:52:47;3.12;;;1.35;;
52266;SDS011;38223;50.940;4.034;2022-07-30T08:55:19;4.10;;;1.67;;
52266;SDS011;38223;50.940;4.034;2022-07-30T08:57:53;8.85;;;2.42;;
52266;SDS011;38223;50.940;4.034;2022-07-30T09:00:24;4.65;;;1.67;;
52266;SDS011;38223;50.940;4.034;2022-07-30T09:02:57;2.72;;;1.60;;
52266;SDS011;38223;50.940;4.034;2022-07-30T09:05:28;3.70;;;1.50;;
52266;SDS011;38223;50.940;4.034;2022-07-30T09:08:00;7.03;;;2.27;;
52266;SDS011;38223;50.940;4.034;2022-07-30T09:10:43;5.30;;;1.60;;
52266;SDS011;38223;50.940;4.034;2022-07-30T09:13:23;4.03;;;1.87;;
52266;SDS011;38223;50.940;4.034;2022-07-30T09:16:21;2.95;;;1.80;;
52266;SDS011;38223;50.940;4.034;2022-07-30T09:18:53;2.87;;;1.45;;
52266;SDS011;38223;50.940;4.034;2022-07-30T09:21:26;6.10;;;1.70;;
52266;SDS011;38223;50.940;4.034;2022-07-30T09:24:02;4.28;;;1.25;;
52266;SDS011;38223;50.940;4.034;2022-07-30T09:26:58;3.00;;;1.52;;
52266;SDS011;38223;50.940;4.034;2022-07-30T09:29:29;5.90;;;1.98;;
52266;SDS011;38223;50.940;4.034;2022-07-30T09:32:08;6.08;;;1.72;;
52266;SDS011;38223;50.940;4.034;2022-07-30T09:34:38;5.33;;;2.10;;
52266;SDS011;38223;50.940;4.034;2022-07-30T09:39:48;3.50;;;1.67;;
52266;SDS011;38223;50.940;4.034;2022-07-30T09:42:23;5.72;;;1.90;;
52266;SDS011;38223;50.940;4.034;2022-07-30T09:45:19;4.85;;;1.85;;
52266;SDS011;38223;50.940;4.034;2022-07-30T09:47:35;5.33;;;1.95;;
52266;SDS011;38223;50.940;4.034;2022-07-30T09:50:11;3.72;;;1.90;;
52266;SDS011;38223;50.940;4.034;2022-07-30T09:52:42;3.87;;;2.05;;
52266;SDS011;38223;50.940;4.034;2022-07-30T09:55:27;4.47;;;2.42;;
52266;SDS011;38223;50.940;4.034;2022-07-30T09:58:03;3.87;;;1.70;;
52266;SDS011;38223;50.940;4.034;2022-07-30T10:00:37;3.98;;;1.80;;
52266;SDS011;38223;50.940;4.034;2022-07-30T10:05:55;5.10;;;2.12;;
52266;SDS011;38223;50.940;4.034;2022-07-30T10:11:20;4.65;;;1.80;;
52266;SDS011;38223;50.940;4.034;2022-07-30T10:13:55;4.72;;;1.90;;
52266;SDS011;38223;50.940;4.034;2022-07-30T10:16:28;4.50;;;1.72;;
52266;SDS011;38223;50.940;4.034;2022-07-30T10:19:00;4.20;;;1.62;;
52266;SDS011;38223;50.940;4.034;2022-07-30T10:21:32;3.35;;;1.67;;
52266;SDS011;38223;50.940;4.034;2022-07-30T10:24:05;10.70;;;1.92;;
52266;SDS011;38223;50.940;4.034;2022-07-30T10:26:39;6.20;;;2.33;;
52266;SDS011;38223;50.940;4.034;2022-07-30T10:29:14;5.70;;;1.82;;
52266;SDS011;38223;50.940;4.034;2022-07-30T10:31:48;4.97;;;2.25;;
52266;SDS011;38223;50.940;4.034;2022-07-30T10:34:23;6.17;;;2.10;;
52266;SDS011;38223;50.940;4.034;2022-07-30T10:36:56;4.95;;;2.25;;
52266;SDS011;38223;50.940;4.034;2022-07-30T10:39:36;3.72;;;2.17;;
52266;SDS011;38223;50.940;4.034;2022-07-30T10:47:27;4.08;;;1.90;;
52266;SDS011;38223;50.940;4.034;2022-07-30T10:50:07;4.15;;;2.20;;
52266;SDS011;38223;50.940;4.034;2022-07-30T10:52:42;6.25;;;1.82;;
52266;SDS011;38223;50.940;4.034;2022-07-30T10:55:23;3.12;;;2.02;;
52266;SDS011;38223;50.940;4.034;2022-07-30T10:58:05;5.83;;;2.30;;
52266;SDS011;38223;50.940;4.034;2022-07-30T11:03:25;4.47;;;2.17;;
52266;SDS011;38223;50.940;4.034;2022-07-30T11:08:50;4.80;;;2.17;;
52266;SDS011;38223;50.940;4.034;2022-07-30T11:14:01;5.17;;;2.58;;
52266;SDS011;38223;50.940;4.034;2022-07-30T11:19:15;3.30;;;1.98;;
52266;SDS011;38223;50.940;4.034;2022-07-30T11:24:56;6.08;;;1.90;;
52266;SDS011;38223;50.940;4.034;2022-07-30T11:27:35;4.92;;;1.67;;
52266;SDS011;38223;50.940;4.034;2022-07-30T11:32:57;3.62;;;1.67;;
52266;SDS011;38223;50.940;4.034;2022-07-30T11:35:36;5.47;;;2.02;;
52266;SDS011;38223;50.940;4.034;2022-07-30T11:38:13;5.72;;;1.87;;
52266;SDS011;38223;50.940;4.034;2022-07-30T11:41:07;4.95;;;1.80;;
52266;SDS011;38223;50.940;4.034;2022-07-30T11:46:07;3.45;;;2.00;;
52266;SDS011;38223;50.940;4.034;2022-07-30T11:48:59;4.83;;;1.55;;
52266;SDS011;38223;50.940;4.034;2022-07-30T11:51:39;7.62;;;1.60;;
52266;SDS011;38223;50.940;4.034;2022-07-30T11:54:13;4.22;;;1.45;;
52266;SDS011;38223;50.940;4.034;2022-07-30T11:56:52;3.87;;;1.40;;
52266;SDS011;38223;50.940;4.034;2022-07-30T11:59:17;3.00;;;1.50;;
52266;SDS011;38223;50.940;4.034;2022-07-30T12:01:51;4.47;;;1.57;;
52266;SDS011;38223;50.940;4.034;2022-07-30T12:04:25;5.95;;;1.50;;
52266;SDS011;38223;50.940;4.034;2022-07-30T12:07:07;5.20;;;1.25;;
52266;SDS011;38223;50.940;4.034;2022-07-30T12:09:43;3.60;;;1.10;;
52266;SDS011;38223;50.940;4.034;2022-07-30T12:12:22;4.17;;;1.22;;
52266;SDS011;38223;50.940;4.034;2022-07-30T12:14:54;5.85;;;1.25;;
52266;SDS011;38223;50.940;4.034;2022-07-30T12:17:47;3.15;;;1.05;;
52266;SDS011;38223;50.940;4.034;2022-07-30T12:20:16;1.77;;;1.17;;
52266;SDS011;38223;50.940;4.034;2022-07-30T12:22:51;4.03;;;1.00;;
52266;SDS011;38223;50.940;4.034;2022-07-30T12:25:25;2.55;;;1.20;;
52266;SDS011;38223;50.940;4.034;2022-07-30T12:27:58;1.95;;;1.10;;
52266;SDS011;38223;50.940;4.034;2022-07-30T12:30:29;2.40;;;0.90;;
52266;SDS011;38223;50.940;4.034;2022-07-30T12:33:06;3.65;;;0.98;;
52266;SDS011;38223;50.940;4.034;2022-07-30T12:35:52;6.53;;;1.10;;
52266;SDS011;38223;50.940;4.034;2022-07-30T12:38:16;3.00;;;1.30;;
52266;SDS011;38223;50.940;4.034;2022-07-30T12:43:42;4.03;;;1.15;;
52266;SDS011;38223;50.940;4.034;2022-07-30T12:46:25;4.20;;;0.85;;
52266;SDS011;38223;50.940;4.034;2022-07-30T12:49:00;3.87;;;1.10;;
52266;SDS011;38223;50.940;4.034;2022-07-30T12:51:32;3.12;;;0.90;;
52266;SDS011;38223;50.940;4.034;2022-07-30T12:54:16;1.90;;;1.20;;
52266;SDS011;38223;50.940;4.034;2022-07-30T12:59:33;4.28;;;1.27;;
52266;SDS011;38223;50.940;4.034;2022-07-30T13:02:03;4.97;;;1.30;;
52266;SDS011;38223;50.940;4.034;2022-07-30T13:04:36;4.37;;;1.30;;
52266;SDS011;38223;50.940;4.034;2022-07-30T13:07:08;4.35;;;1.20;;
52266;SDS011;38223;50.940;4.034;2022-07-30T13:09:41;4.75;;;1.22;;
52266;SDS011;38223;50.940;4.034;2022-07-30T13:12:24;3.90;;;1.20;;
52266;SDS011;38223;50.940;4.034;2022-07-30T13:14:55;4.05;;;1.10;;
52266;SDS011;38223;50.940;4.034;2022-07-30T13:17:28;4.70;;;1.17;;
52266;SDS011;38223;50.940;4.034;2022-07-30T13:20:00;2.33;;;1.00;;
52266;SDS011;38223;50.940;4.034;2022-07-30T13:22:34;3.42;;;1.25;;
52266;SDS011;38223;50.940;4.034;2022-07-30T13:25:06;5.70;;;1.20;;
52266;SDS011;38223;50.940;4.034;2022-07-30T13:27:39;1.17;;;0.95;;
52266;SDS011;38223;50.940;4.034;2022-07-30T13:30:08;4.50;;;1.00;;
52266;SDS011;38223;50.940;4.034;2022-07-30T13:32:40;1.95;;;0.78;;
52266;SDS011;38223;50.940;4.034;2022-07-30T13:35:11;1.25;;;0.72;;
52266;SDS011;38223;50.940;4.034;2022-07-30T13:37:42;1.80;;;1.00;;
52266;SDS011;38223;50.940;4.034;2022-07-30T13:40:13;1.05;;;0.98;;
52266;SDS011;38223;50.940;4.034;2022-07-30T13:42:46;1.62;;;1.00;;
52266;SDS011;38223;50.940;4.034;2022-07-30T13:45:17;3.92;;;1.10;;
52266;SDS011;38223;50.940;4.034;2022-07-30T13:47:54;4.65;;;1.10;;
52266;SDS011;38223;50.940;4.034;2022-07-30T13:50:23;2.75;;;1.00;;
52266;SDS011;38223;50.940;4.034;2022-07-30T13:52:54;5.10;;;1.00;;
52266;SDS011;38223;50.940;4.034;2022-07-30T13:55:24;3.83;;;1.00;;
52266;SDS011;38223;50.940;4.034;2022-07-30T13:57:58;2.30;;;1.07;;
52266;SDS011;38223;50.940;4.034;2022-07-30T14:00:29;5.03;;;0.98;;
52266;SDS011;38223;50.940;4.034;2022-07-30T14:03:03;3.52;;;1.15;;
52266;SDS011;38223;50.940;4.034;2022-07-30T14:05:41;1.05;;;0.90;;
52266;SDS011;38223;50.940;4.034;2022-07-30T14:08:15;2.42;;;1.05;;
52266;SDS011;38223;50.940;4.034;2022-07-30T14:10:44;2.22;;;0.80;;
52266;SDS011;38223;50.940;4.034;2022-07-30T14:13:18;3.58;;;1.00;;
52266;SDS011;38223;50.940;4.034;2022-07-30T14:15:49;3.72;;;1.00;;
52266;SDS011;38223;50.940;4.034;2022-07-30T14:18:24;2.25;;;0.90;;
52266;SDS011;38223;50.940;4.034;2022-07-30T14:20:54;2.80;;;0.95;;
52266;SDS011;38223;50.940;4.034;2022-07-30T14:23:26;2.22;;;1.20;;
52266;SDS011;38223;50.940;4.034;2022-07-30T14:25:57;5.12;;;1.05;;
52266;SDS011;38223;50.940;4.034;2022-07-30T14:28:31;3.83;;;1.00;;
52266;SDS011;38223;50.940;4.034;2022-07-30T14:31:02;3.55;;;1.10;;
52266;SDS011;38223;50.940;4.034;2022-07-30T14:33:37;10.18;;;1.40;;
52266;SDS011;38223;50.940;4.034;2022-07-30T14:36:10;2.40;;;1.00;;
52266;SDS011;38223;50.940;4.034;2022-07-30T14:38:40;2.47;;;1.15;;
52266;SDS011;38223;50.940;4.034;2022-07-30T14:41:14;1.80;;;1.02;;
52266;SDS011;38223;50.940;4.034;2022-07-30T14:43:43;3.65;;;1.00;;
52266;SDS011;38223;50.940;4.034;2022-07-30T14:46:15;2.33;;;1.10;;
52266;SDS011;38223;50.940;4.034;2022-07-30T14:48:48;2.17;;;0.85;;
52266;SDS011;38223;50.940;4.034;2022-07-30T14:51:22;1.92;;;1.02;;
52266;SDS011;38223;50.940;4.034;2022-07-30T14:53:53;2.47;;;1.00;;
52266;SDS011;38223;50.940;4.034;2022-07-30T14:56:25;3.20;;;1.00;;
52266;SDS011;38223;50.940;4.034;2022-07-30T14:58:57;2.08;;;1.00;;
52266;SDS011;38223;50.940;4.034;2022-07-30T15:01:27;1.90;;;1.02;;
52266;SDS011;38223;50.940;4.034;2022-07-30T15:04:03;1.02;;;0.80;;
52266;SDS011;38223;50.940;4.034;2022-07-30T15:06:33;7.90;;;1.37;;
52266;SDS011;38223;50.940;4.034;2022-07-30T15:09:06;3.00;;;1.10;;
52266;SDS011;38223;50.940;4.034;2022-07-30T15:11:39;2.65;;;1.00;;
52266;SDS011;38223;50.940;4.034;2022-07-30T15:14:28;3.02;;;1.30;;
52266;SDS011;38223;50.940;4.034;2022-07-30T15:17:04;3.40;;;1.20;;
52266;SDS011;38223;50.940;4.034;2022-07-30T15:19:34;2.70;;;1.15;;
52266;SDS011;38223;50.940;4.034;2022-07-30T15:22:06;3.75;;;1.00;;
52266;SDS011;38223;50.940;4.034;2022-07-30T15:24:36;2.05;;;0.90;;
52266;SDS011;38223;50.940;4.034;2022-07-30T15:27:12;4.80;;;1.02;;
52266;SDS011;38223;50.940;4.034;2022-07-30T15:29:43;2.75;;;1.30;;
52266;SDS011;38223;50.940;4.034;2022-07-30T15:32:15;1.57;;;1.07;;
52266;SDS011;38223;50.940;4.034;2022-07-30T15:34:49;4.10;;;1.27;;
52266;SDS011;38223;50.940;4.034;2022-07-30T15:37:25;2.22;;;1.05;;
52266;SDS011;38223;50.940;4.034;2022-07-30T15:39:58;2.72;;;1.20;;
52266;SDS011;38223;50.940;4.034;2022-07-30T15:42:27;4.28;;;1.20;;
52266;SDS011;38223;50.940;4.034;2022-07-30T15:44:58;3.92;;;1.27;;
52266;SDS011;38223;50.940;4.034;2022-07-30T15:47:34;4.17;;;0.80;;
52266;SDS011;38223;50.940;4.034;2022-07-30T15:50:05;3.17;;;1.30;;
52266;SDS011;38223;50.940;4.034;2022-07-30T15:52:40;3.45;;;1.17;;
52266;SDS011;38223;50.940;4.034;2022-07-30T15:55:11;3.00;;;1.02;;
52266;SDS011;38223;50.940;4.034;2022-07-30T15:57:47;2.33;;;1.20;;
52266;SDS011;38223;50.940;4.034;2022-07-30T16:00:16;2.25;;;1.00;;
52266;SDS011;38223;50.940;4.034;2022-07-30T16:02:46;4.20;;;1.20;;